SAEZ Airport Information

Runway Information
Runway 11 Length 10827 ft width 197 ft
Elevation 62 ft Threshold ft Heading 102
Runway 29 Length 10827 ft Width 197 ft
Elevation 66 ft Threshold ft Heading 282
Runway 17 Length 10187 ft width 148 ft
Elevation 62 ft Threshold ft Heading 164
Runway 35 Length 10187 ft Width 148 ft
Elevation 67 ft Threshold 984 ft Heading 344
Airport Frequencies
Type A/D Name BAIRES CON Frequency 124.9 MHZ
Type APP Name EZEIZA APP Frequency 119.9 MHZ
Type ATIS Name ATIS Frequency 127.8 MHZ
Type GCCD Name GND/CLNC D Frequency 121.75 MHZ
Type TWR Name EZEIZA TWR Frequency 118.6 MHZ
Airport Navaids
Type VOR-DME Name Ezeiza Frequency 116500 KHZ
Airport Weather Information & NOTAM
ADDS - METARS form results

(0458 UTC 02 July 2022)
Data provider http://aviationweather.gov/metar/data/
 
METAR text: SAEZ 020446Z 28005KT 0800 R11/1300D FG NSC 08/08 Q1009 BECMG 7000 BKN010 RMK PP000
Conditions at: SAEZ (BUENOS AIRES/EZE, AR) observed 0446 UTC 02 July 2022
Temperature: 8.0°C (46°F)
Dewpoint: 8.0°C (46°F) [RH = 100%]
Pressure (altimeter): 29.79 inches Hg (1009.0 mb)
Winds: from the W (280 degrees) at 6 MPH (5 knots; 2.6 m/s)
Visibility: 0.50 miles (0.80 km)
Ceiling: at least 12,000 feet AGL
Clouds: sky clear below 12,000 feet AGL
Weather: FG  (fog)

METAR text: SAEZ 020436Z 28004KT 1600 BR SCT006 SCT100 09/09 Q1009 BECMG 1500 BKN006 RMK PP000
Conditions at: SAEZ (BUENOS AIRES/EZE, AR) observed 0436 UTC 02 July 2022
Temperature: 9.0°C (48°F)
Dewpoint: 9.0°C (48°F) [RH = 100%]
Pressure (altimeter): 29.79 inches Hg (1009.0 mb)
Winds: from the W (280 degrees) at 5 MPH (4 knots; 2.1 m/s)
Visibility: 0.99 miles (1.59 km)
Ceiling: at least 12,000 feet AGL
Clouds: scattered clouds at 600 feet AGL
scattered clouds at 10000 feet AGL
Weather: BR  (mist)

METAR text: SAEZ 020400Z 29004KT 3500 BR FEW009 SCT100 09/09 Q1009 BECMG 29004KT 7000 BKN010
Conditions at: SAEZ (BUENOS AIRES/EZE, AR) observed 0400 UTC 02 July 2022
Temperature: 9.0°C (48°F)
Dewpoint: 9.0°C (48°F) [RH = 100%]
Pressure (altimeter): 29.79 inches Hg (1009.0 mb)
Winds: from the WNW (290 degrees) at 5 MPH (4 knots; 2.1 m/s)
Visibility: 2.17 miles (3.49 km)
Ceiling: at least 12,000 feet AGL
Clouds: few clouds at 900 feet AGL
scattered clouds at 10000 feet AGL
Weather: BR  (mist)

Forecast for: AMD
Text: TAF AMD SAEZ 020155Z 0202/0224 34005KT 5000 MIFG BR NSC TX14/0218Z TN04/0211Z
Forecast period: 0200 to 0300 UTC 02 July 2022
Forecast type: FROM: standard forecast or significant change
Winds: from the NNW (340 degrees) at 6 MPH (5 knots; 2.6 m/s)
Visibility: 3 miles (5 km)
Ceiling: unknown
Clouds: missing
Weather: MIFG BR  (shallow fog, mist)
Text: BECMG 0203/0204 VRB03KT 1500 BR
Forecast period: 0300 to 0800 UTC 02 July 2022
Forecast type: BECOMING: Conditions expected to become as follows by 0400 UTC 02 July 2022
Winds: variable direction winds at 3 MPH (3 knots; 1.5 m/s)
Visibility: 0.93 miles (1.50 km)
Ceiling: unknown
Clouds: missing
Weather: BR  (mist)
Text: TEMPO 0204/0208 0500 FG SCT003
Forecast period: 0400 to 0800 UTC 02 July 2022
Forecast type: TEMPORARY: The following changes expected for less than half the time period
Visibility: 0.31 miles (0.50 km)
Ceiling: at least 12,000 feet AGL
Clouds: scattered clouds at 300 feet AGL
Weather: FG  (fog)
Text: BECMG 0208/0210 23010KT CAVOK
Forecast period: 0800 UTC 02 July 2022 to 0000 UTC 03 July 2022
Forecast type: BECOMING: Conditions expected to become as follows by 1000 UTC 02 July 2022
Winds: from the SW (230 degrees) at 12 MPH (10 knots; 5.1 m/s)
Visibility: 6 or more miles (10+ km)
Ceiling: unknown
Clouds: missing
Weather: NSW  (no significant weather)
Text: TEMPO 0213/0218 23010G20KT
Forecast period: 1300 to 1800 UTC 02 July 2022
Forecast type: TEMPORARY: The following changes expected for less than half the time period
Winds: from the SW (230 degrees) at 12 MPH (10 knots; 5.1 m/s)
gusting to 23 MPH (20 knots; 10.3 m/s)
Visibility: missing
Ceiling: unknown
Clouds: missing
Weather: no significant weather forecast for this period